C. Angelo — WCZ5866 — position and weather

sailwx.info

Track history (hours):
 
Tides and Currents Weather Stations Pressure Air Temp Water Temp Dewpoint Dewpoint Depression Visibility Wind Speed Wind Dir Waves Ship Positions

C. Angelo

Owner: G T 110 INC, NEW HAVEN, CT. More information available from US FCC via Universal Licensing System and Coast Guard Vessel Documentation Center.

Last reported at 2018-Apr-23 00:53 UTC. Time now 2018-Apr-23 19:31 UTC.
Position N 41°14' W 072°01'.

MMSI: 366988420.

Date/timePositionNaut miles runAvg speedWind from/ knotsBaromVisibWave heightAir tempDewpointWater temp
2018-Apr-23 00:53N 41°14' W 072°01'410.9
2018-Apr-23 00:30N 41°15' W 072°07'611.3
2018-Apr-23 00:00N 41°13' W 072°14'611.5
2018-Apr-22 23:30N 41°12' W 072°21'611.0
2018-Apr-22 23:00N 41°10' W 072°28'610.3
2018-Apr-22 22:28N 41°10' W 072°36'5 9.6
2018-Apr-22 22:00N 41°11' W 072°42'5 9.4
2018-Apr-22 21:29N 41°11' W 072°48'13 0.5
2018-Apr-21 16:33N 41°00' W 072°39'0 0.3
2018-Apr-21 16:30N 41°00' W 072°39'0 0.2
2018-Apr-21 16:00N 41°00' W 072°39'1 1.2
2018-Apr-21 14:53N 41°01' W 072°40'511.0
2018-Apr-21 14:28N 41°04' W 072°44'6 0.5
2018-Apr-21 02:43N 41°00' W 072°39'0 0.2
2018-Apr-21 00:39N 41°00' W 072°38'0 1.9
2018-Apr-21 00:28N 41°00' W 072°39'3 5.9
2018-Apr-21 00:00N 41°02' W 072°41'11 0.6
2018-Apr-20 07:04N 41°11' W 072°49'1 6.6
2018-Apr-20 06:59N 41°11' W 072°48'3 7.0
2018-Apr-20 06:30N 41°11' W 072°44'4 7.5
2018-Apr-20 06:00N 41°11' W 072°39'4 7.9
2018-Apr-20 05:30N 41°10' W 072°34'4 8.1
2018-Apr-20 05:00N 41°10' W 072°28'4 8.7
2018-Apr-20 04:30N 41°11' W 072°23'5 9.6
2018-Apr-20 04:00N 41°13' W 072°17'5 9.5
2018-Apr-20 03:30N 41°14' W 072°11'5 8.8
2018-Apr-20 02:59N 41°14' W 072°05'0 0.0
2018-Apr-18 22:40N 41°15' W 072°05'211.6
2018-Apr-18 22:30N 41°15' W 072°07'611.7
2018-Apr-18 22:00N 41°13' W 072°15'612.0
2018-Apr-18 21:30N 41°12' W 072°22'611.4
2018-Apr-18 21:00N 41°10' W 072°30'611.0
2018-Apr-18 20:30N 41°10' W 072°37'510.5
2018-Apr-18 20:00N 41°11' W 072°44'  
2018-Apr-14 18:26N 40°55' W 073°38'4 9.4
2018-Apr-14 17:58N 40°53' W 073°43'4 9.1
2018-Apr-14 17:30N 40°49' W 073°47'3 6.0
2018-Apr-14 16:59N 40°48' W 073°51'3 6.4
2018-Apr-14 16:30N 40°48' W 073°55'2 4.4
2018-Apr-14 16:00N 40°46' W 073°57'2 4.8
2018-Apr-14 15:30N 40°44' W 073°58'2 4.9
2018-Apr-14 15:00N 40°42' W 074°00'4 7.2
2018-Apr-14 14:30N 40°39' W 074°03'4 8.8
2018-Apr-14 14:00N 40°39' W 074°09'2 4.9
2018-Apr-14 13:30N 40°41' W 074°08'0 0.7
2018-Apr-14 13:00N 40°41' W 074°08'2 4.4
2018-Apr-14 12:30N 40°39' W 074°08'3 6.6
2018-Apr-14 12:00N 40°40' W 074°04'0 0.6
2018-Apr-14 11:30N 40°40' W 074°04'0 0.3
2018-Apr-14 11:00N 40°40' W 074°04'0 0.0
2018-Apr-14 10:30N 40°40' W 074°04'0 0.0
2018-Apr-14 10:00N 40°40' W 074°04'0 0.0
2018-Apr-14 09:29N 40°40' W 074°04'1 3.0
2018-Apr-14 09:00N 40°40' W 074°03'1 2.2
2018-Apr-14 08:30N 40°41' W 074°01'3 5.2
2018-Apr-14 08:00N 40°43' W 073°59'2 4.7
2018-Apr-14 07:30N 40°45' W 073°58'3 6.1
2018-Apr-14 07:00N 40°47' W 073°55'3 5.1
2018-Apr-14 06:30N 40°48' W 073°52'3 5.6
2018-Apr-14 06:00N 40°48' W 073°48'3 5.4
2018-Apr-14 05:29N 40°50' W 073°46'3 6.3
2018-Apr-14 04:59N 40°53' W 073°43'3 6.2
2018-Apr-14 04:29N 40°54' W 073°40'  
Track history (hours):
 
Tides and Currents Weather Stations Pressure Air Temp Water Temp Dewpoint Dewpoint Depression Visibility Wind Speed Wind Dir Waves Ship Positions

C. Angelo

Owner: G T 110 INC, NEW HAVEN, CT. More information available from US FCC via Universal Licensing System and Coast Guard Vessel Documentation Center.

Last reported at 2018-Apr-23 00:53 UTC. Time now 2018-Apr-23 19:31 UTC.
Position N 41°14' W 072°01'.

MMSI: 366988420.

Date/timePositionNaut miles runAvg speedWind from/ knotsBaromVisibWave heightAir tempDewpointWater temp
2018-Apr-23 00:53N 41°14' W 072°01'410.9
2018-Apr-23 00:30N 41°15' W 072°07'611.3
2018-Apr-23 00:00N 41°13' W 072°14'611.5
2018-Apr-22 23:30N 41°12' W 072°21'611.0
2018-Apr-22 23:00N 41°10' W 072°28'610.3
2018-Apr-22 22:28N 41°10' W 072°36'5 9.6
2018-Apr-22 22:00N 41°11' W 072°42'5 9.4
2018-Apr-22 21:29N 41°11' W 072°48'13 0.5
2018-Apr-21 16:33N 41°00' W 072°39'0 0.3
2018-Apr-21 16:30N 41°00' W 072°39'0 0.2
2018-Apr-21 16:00N 41°00' W 072°39'1 1.2
2018-Apr-21 14:53N 41°01' W 072°40'511.0
2018-Apr-21 14:28N 41°04' W 072°44'6 0.5
2018-Apr-21 02:43N 41°00' W 072°39'0 0.2
2018-Apr-21 00:39N 41°00' W 072°38'0 1.9
2018-Apr-21 00:28N 41°00' W 072°39'3 5.9
2018-Apr-21 00:00N 41°02' W 072°41'11 0.6
2018-Apr-20 07:04N 41°11' W 072°49'1 6.6
2018-Apr-20 06:59N 41°11' W 072°48'3 7.0
2018-Apr-20 06:30N 41°11' W 072°44'4 7.5
2018-Apr-20 06:00N 41°11' W 072°39'4 7.9
2018-Apr-20 05:30N 41°10' W 072°34'4 8.1
2018-Apr-20 05:00N 41°10' W 072°28'4 8.7
2018-Apr-20 04:30N 41°11' W 072°23'5 9.6
2018-Apr-20 04:00N 41°13' W 072°17'5 9.5
2018-Apr-20 03:30N 41°14' W 072°11'5 8.8
2018-Apr-20 02:59N 41°14' W 072°05'0 0.0
2018-Apr-18 22:40N 41°15' W 072°05'211.6
2018-Apr-18 22:30N 41°15' W 072°07'611.7
2018-Apr-18 22:00N 41°13' W 072°15'612.0
2018-Apr-18 21:30N 41°12' W 072°22'611.4
2018-Apr-18 21:00N 41°10' W 072°30'611.0
2018-Apr-18 20:30N 41°10' W 072°37'510.5
2018-Apr-18 20:00N 41°11' W 072°44'  
2018-Apr-14 18:26N 40°55' W 073°38'4 9.4
2018-Apr-14 17:58N 40°53' W 073°43'4 9.1
2018-Apr-14 17:30N 40°49' W 073°47'3 6.0
2018-Apr-14 16:59N 40°48' W 073°51'3 6.4
2018-Apr-14 16:30N 40°48' W 073°55'2 4.4
2018-Apr-14 16:00N 40°46' W 073°57'2 4.8
2018-Apr-14 15:30N 40°44' W 073°58'2 4.9
2018-Apr-14 15:00N 40°42' W 074°00'4 7.2
2018-Apr-14 14:30N 40°39' W 074°03'4 8.8
2018-Apr-14 14:00N 40°39' W 074°09'2 4.9
2018-Apr-14 13:30N 40°41' W 074°08'0 0.7
2018-Apr-14 13:00N 40°41' W 074°08'2 4.4
2018-Apr-14 12:30N 40°39' W 074°08'3 6.6
2018-Apr-14 12:00N 40°40' W 074°04'0 0.6
2018-Apr-14 11:30N 40°40' W 074°04'0 0.3
2018-Apr-14 11:00N 40°40' W 074°04'0 0.0
2018-Apr-14 10:30N 40°40' W 074°04'0 0.0
2018-Apr-14 10:00N 40°40' W 074°04'0 0.0
2018-Apr-14 09:29N 40°40' W 074°04'1 3.0
2018-Apr-14 09:00N 40°40' W 074°03'1 2.2
2018-Apr-14 08:30N 40°41' W 074°01'3 5.2
2018-Apr-14 08:00N 40°43' W 073°59'2 4.7
2018-Apr-14 07:30N 40°45' W 073°58'3 6.1
2018-Apr-14 07:00N 40°47' W 073°55'3 5.1
2018-Apr-14 06:30N 40°48' W 073°52'3 5.6
2018-Apr-14 06:00N 40°48' W 073°48'3 5.4
2018-Apr-14 05:29N 40°50' W 073°46'3 6.3
2018-Apr-14 04:59N 40°53' W 073°43'3 6.2
2018-Apr-14 04:29N 40°54' W 073°40'  

Dump ship's entire track history